createdAt,value
2022-11-05T00:00:31.436Z,20.80
2022-11-05T00:03:52.049Z,20.77
2022-11-05T00:07:14.248Z,20.81
2022-11-05T00:10:27.617Z,20.85
2022-11-05T00:13:48.428Z,20.61
2022-11-05T00:16:50.655Z,20.70
2022-11-05T00:19:53.000Z,20.85
2022-11-05T00:23:21.583Z,20.78
2022-11-05T00:26:23.772Z,20.83
2022-11-05T00:29:26.159Z,20.81
2022-11-05T00:32:28.458Z,20.73
2022-11-05T00:35:30.791Z,20.72
2022-11-05T00:38:33.781Z,20.74
2022-11-05T00:41:36.293Z,20.66
2022-11-05T00:44:57.109Z,20.66
2022-11-05T00:48:18.054Z,20.76
2022-11-05T00:51:20.746Z,20.73
2022-11-05T00:54:22.989Z,20.71
2022-11-05T00:57:25.211Z,20.75
2022-11-05T01:00:29.818Z,20.65
2022-11-05T01:03:34.875Z,20.74
2022-11-05T01:06:37.070Z,20.68
2022-11-05T01:09:39.267Z,20.73
2022-11-05T01:12:41.588Z,20.54
2022-11-05T01:15:43.786Z,20.65
2022-11-05T01:18:45.960Z,20.66
2022-11-05T01:21:48.198Z,20.67
2022-11-05T01:24:50.434Z,20.67
2022-11-05T01:27:52.679Z,20.57
2022-11-05T01:30:58.111Z,20.51
2022-11-05T01:34:01.213Z,20.63
2022-11-05T01:37:03.545Z,20.60
2022-11-05T01:40:08.115Z,20.64
2022-11-05T01:43:16.551Z,20.57
2022-11-05T01:46:29.249Z,20.61
2022-11-05T01:49:34.378Z,20.57
2022-11-05T01:52:36.585Z,20.60
2022-11-05T01:55:44.201Z,20.58
2022-11-05T01:58:53.366Z,20.52
2022-11-05T02:01:56.334Z,20.57
2022-11-05T02:05:02.370Z,20.43
2022-11-05T02:08:05.014Z,20.42
2022-11-05T02:11:07.342Z,20.44
2022-11-05T02:14:09.539Z,20.49
2022-11-05T02:17:22.818Z,20.51
2022-11-05T02:20:39.092Z,20.51
2022-11-05T02:23:58.212Z,20.51
2022-11-05T02:27:15.685Z,20.48
2022-11-05T02:30:25.708Z,20.38
2022-11-05T02:33:56.870Z,20.45
2022-11-05T02:37:17.578Z,20.46
2022-11-05T02:40:28.997Z,20.38
2022-11-05T02:43:51.096Z,20.40
2022-11-05T02:47:18.343Z,20.37
2022-11-05T02:50:31.301Z,20.39
2022-11-05T02:53:53.685Z,20.23
2022-11-05T02:56:59.047Z,20.37
2022-11-05T03:00:26.290Z,20.35
2022-11-05T03:03:43.018Z,20.30
2022-11-05T03:07:35.401Z,20.31
2022-11-05T03:10:48.595Z,20.32
2022-11-05T03:14:03.458Z,20.25
2022-11-05T03:17:20.884Z,20.33
2022-11-05T03:20:46.024Z,20.04
2022-11-05T03:24:08.443Z,20.32
2022-11-05T03:27:15.166Z,20.30
2022-11-05T03:30:19.057Z,20.27
2022-11-05T03:33:27.590Z,20.20
2022-11-05T03:36:52.266Z,20.27
2022-11-05T03:40:00.390Z,20.20
2022-11-05T03:43:07.362Z,20.25
2022-11-05T03:46:15.768Z,20.25
2022-11-05T03:49:24.416Z,20.13
2022-11-05T03:52:33.310Z,20.20
2022-11-05T03:55:51.287Z,20.16
2022-11-05T03:58:58.859Z,20.18
2022-11-05T04:02:02.814Z,20.19
2022-11-05T04:05:05.603Z,20.11
2022-11-05T04:08:27.999Z,20.09
2022-11-05T04:11:48.756Z,20.20
2022-11-05T04:14:51.075Z,20.14
2022-11-05T04:17:53.920Z,20.14
2022-11-05T04:21:14.868Z,20.16
2022-11-05T04:24:17.165Z,20.19
2022-11-05T04:27:19.421Z,20.16
2022-11-05T04:30:22.778Z,19.96
2022-11-05T04:33:24.974Z,19.81
2022-11-05T04:36:27.256Z,20.12
2022-11-05T04:39:29.431Z,20.14
2022-11-05T04:42:32.078Z,19.98
2022-11-05T04:45:35.638Z,20.02
2022-11-05T04:48:38.155Z,20.06
2022-11-05T04:51:40.560Z,20.08
2022-11-05T04:54:42.746Z,20.03
2022-11-05T04:57:49.143Z,19.99
2022-11-05T05:00:51.398Z,20.02
2022-11-05T05:03:54.594Z,20.06
2022-11-05T05:06:56.927Z,20.02
2022-11-05T05:09:59.140Z,20.01
2022-11-05T05:13:01.411Z,19.96
2022-11-05T05:16:18.468Z,20.03
2022-11-05T05:19:20.666Z,19.98
2022-11-05T05:22:22.947Z,20.01
2022-11-05T05:25:25.508Z,19.98
2022-11-05T05:28:28.018Z,19.95
2022-11-05T05:31:30.372Z,19.87
2022-11-05T05:34:32.639Z,19.99
2022-11-05T05:37:34.861Z,19.96
2022-11-05T05:40:37.054Z,19.91
2022-11-05T05:43:39.344Z,19.88
2022-11-05T05:46:41.581Z,19.94
2022-11-05T05:49:43.823Z,19.84
2022-11-05T05:52:46.037Z,19.86
2022-11-05T05:55:48.244Z,19.81
2022-11-05T05:58:50.466Z,19.91
2022-11-05T06:01:52.816Z,19.89
2022-11-05T06:04:55.072Z,19.85
2022-11-05T06:07:58.024Z,19.79
2022-11-05T06:11:01.291Z,19.87
2022-11-05T06:14:03.553Z,19.83
2022-11-05T06:17:07.066Z,19.86
2022-11-05T06:20:10.268Z,19.83
2022-11-05T06:23:12.888Z,19.74
2022-11-05T06:26:17.651Z,19.85
2022-11-05T06:29:19.881Z,19.80
2022-11-05T06:32:22.171Z,19.82
2022-11-05T06:35:24.480Z,19.83
2022-11-05T06:38:26.870Z,19.74
2022-11-05T06:41:29.099Z,19.66
2022-11-05T06:44:31.399Z,19.70
2022-11-05T06:47:33.615Z,19.73
2022-11-05T06:50:35.874Z,19.82
2022-11-05T06:53:38.101Z,19.81
2022-11-05T06:56:40.387Z,19.79
2022-11-05T06:59:42.611Z,19.81
2022-11-05T07:02:45.885Z,19.71
2022-11-05T07:05:49.448Z,19.81
2022-11-05T07:08:51.704Z,19.74
2022-11-05T07:11:53.901Z,19.74
2022-11-05T07:14:56.106Z,19.73
2022-11-05T07:18:00.157Z,19.80
2022-11-05T07:21:02.498Z,19.72
2022-11-05T07:24:05.250Z,19.72
2022-11-05T07:27:07.455Z,19.59
2022-11-05T07:30:10.566Z,19.79
2022-11-05T07:33:13.237Z,19.78
2022-11-05T07:36:15.856Z,19.72
2022-11-05T07:39:18.303Z,19.80
2022-11-05T07:42:20.537Z,19.76
2022-11-05T07:45:24.156Z,19.68
2022-11-05T07:48:26.361Z,19.78
2022-11-05T07:51:28.583Z,19.78
2022-11-05T07:54:30.887Z,19.62
2022-11-05T07:57:39.715Z,19.73
2022-11-05T08:00:42.034Z,19.71
2022-11-05T08:03:44.434Z,19.71
2022-11-05T08:06:46.742Z,19.67
2022-11-05T08:09:48.947Z,19.65
2022-11-05T08:12:54.017Z,19.73
2022-11-05T08:15:57.687Z,19.69
2022-11-05T08:18:59.924Z,19.76
2022-11-05T08:22:02.235Z,19.76
2022-11-05T08:25:07.013Z,19.74
2022-11-05T08:28:12.914Z,19.75
2022-11-05T08:31:17.787Z,19.70
2022-11-05T08:34:20.021Z,19.67
2022-11-05T08:37:22.638Z,19.70
2022-11-05T08:40:26.237Z,19.73
2022-11-05T08:43:28.549Z,19.69
2022-11-05T08:46:30.758Z,19.76
2022-11-05T08:49:32.993Z,19.68
2022-11-05T08:52:35.311Z,19.71
2022-11-05T08:55:38.554Z,19.67
2022-11-05T08:58:40.753Z,19.71
2022-11-05T09:01:43.052Z,19.61
2022-11-05T09:04:45.359Z,19.79
2022-11-05T09:07:47.741Z,19.71
2022-11-05T09:10:50.109Z,19.66
2022-11-05T09:13:52.401Z,19.73
2022-11-05T09:16:54.704Z,19.74
2022-11-05T09:20:11.207Z,19.64
2022-11-05T09:23:15.517Z,19.80
2022-11-05T09:26:17.765Z,19.77
2022-11-05T09:29:20.126Z,19.76
2022-11-05T09:32:23.236Z,19.81
2022-11-05T09:35:25.454Z,19.55
2022-11-05T09:38:27.991Z,19.75
2022-11-05T09:41:37.173Z,19.84
2022-11-05T09:44:51.607Z,19.69
2022-11-05T09:48:07.509Z,19.84
2022-11-05T09:51:19.264Z,19.79
2022-11-05T09:54:31.559Z,19.79
2022-11-05T09:57:46.114Z,19.78
2022-11-05T10:00:52.348Z,19.76
2022-11-05T10:03:57.695Z,19.78
2022-11-05T10:07:04.186Z,19.83
2022-11-05T10:10:09.031Z,19.87
2022-11-05T10:13:22.540Z,19.80
2022-11-05T10:16:33.676Z,19.73
2022-11-05T10:19:47.560Z,19.77
2022-11-05T10:22:56.365Z,19.67
2022-11-05T10:26:03.878Z,19.87
2022-11-05T10:29:06.290Z,19.69
2022-11-05T10:32:13.057Z,19.87
2022-11-05T10:35:18.959Z,19.84
2022-11-05T10:38:21.255Z,19.82
2022-11-05T10:41:36.011Z,19.89
2022-11-05T10:44:50.935Z,19.88
2022-11-05T10:48:36.949Z,19.85
2022-11-05T10:51:43.895Z,19.89
2022-11-05T10:54:46.996Z,19.85
2022-11-05T10:57:52.290Z,19.90
2022-11-05T11:00:55.833Z,19.89
2022-11-05T11:04:16.459Z,19.86
2022-11-05T11:07:23.131Z,19.85
2022-11-05T11:10:26.860Z,19.85
2022-11-05T11:13:48.372Z,19.72
2022-11-05T11:16:51.734Z,19.93
2022-11-05T11:20:22.180Z,19.94
2022-11-05T11:23:24.512Z,19.88
2022-11-05T11:26:33.269Z,19.91
2022-11-05T11:29:40.515Z,19.88
2022-11-05T11:32:46.768Z,19.95
2022-11-05T11:35:49.059Z,19.86
2022-11-05T11:38:58.594Z,19.90
2022-11-05T11:42:07.977Z,19.93
2022-11-05T11:45:27.633Z,19.89
2022-11-05T11:48:31.115Z,19.89
2022-11-05T11:51:49.673Z,19.66
2022-11-05T11:54:53.078Z,19.84
2022-11-05T11:58:07.784Z,19.94
2022-11-05T12:01:26.286Z,19.91
2022-11-05T12:05:04.535Z,19.92
2022-11-05T12:08:27.183Z,19.98
2022-11-05T12:11:56.963Z,19.98
2022-11-05T12:15:31.209Z,19.96
2022-11-05T12:18:33.522Z,19.96
2022-11-05T12:22:08.040Z,19.96
2022-11-05T12:25:13.094Z,19.96
2022-11-05T12:28:36.105Z,19.95
2022-11-05T12:32:20.760Z,19.95
2022-11-05T12:35:44.162Z,19.93
2022-11-05T12:39:22.108Z,19.94
2022-11-05T12:42:33.458Z,19.95
2022-11-05T12:45:41.779Z,19.96
2022-11-05T12:49:30.966Z,19.95
2022-11-05T12:53:04.717Z,19.88
2022-11-05T12:56:16.742Z,19.89
2022-11-05T12:59:31.861Z,19.95
2022-11-05T13:02:51.130Z,19.89
2022-11-05T13:06:06.778Z,19.91
2022-11-05T13:09:13.386Z,19.96
2022-11-05T13:12:18.625Z,19.96
2022-11-05T13:15:23.961Z,19.97
2022-11-05T13:18:50.254Z,19.95
2022-11-05T13:21:58.156Z,19.97
2022-11-05T13:25:11.071Z,19.96
2022-11-05T13:28:54.912Z,19.95
2022-11-05T13:32:22.505Z,19.89
2022-11-05T13:35:40.191Z,19.96
2022-11-05T13:38:59.402Z,19.90
2022-11-05T13:42:23.046Z,19.95
2022-11-05T13:46:05.855Z,19.94
2022-11-05T13:49:20.567Z,19.95
2022-11-05T13:52:43.814Z,19.93
2022-11-05T13:55:55.069Z,19.94
2022-11-05T13:59:35.211Z,19.95
2022-11-05T14:02:40.256Z,19.94
2022-11-05T14:05:43.497Z,19.87
2022-11-05T14:08:46.564Z,19.79
2022-11-05T14:11:53.850Z,19.89
2022-11-05T14:15:21.684Z,19.81
2022-11-05T14:18:36.772Z,19.92
2022-11-05T14:21:55.998Z,19.90
2022-11-05T14:24:59.674Z,19.87
2022-11-05T14:28:01.860Z,19.86
2022-11-05T14:31:13.319Z,19.92
2022-11-05T14:34:15.491Z,19.89
2022-11-05T14:37:22.761Z,19.89
2022-11-05T14:40:43.680Z,19.87
2022-11-05T14:43:58.840Z,19.90
2022-11-05T14:47:04.871Z,19.85
2022-11-05T14:50:22.664Z,19.85
2022-11-05T14:53:37.852Z,19.87
2022-11-05T14:56:50.540Z,19.81
2022-11-05T14:59:58.552Z,19.82
2022-11-05T15:03:23.751Z,19.86
2022-11-05T15:06:27.924Z,19.87
2022-11-05T15:09:34.791Z,19.87
2022-11-05T15:12:51.625Z,19.87
2022-11-05T15:15:54.500Z,19.79
2022-11-05T15:18:57.729Z,19.79
2022-11-05T15:22:04.400Z,19.84
2022-11-05T15:25:18.949Z,19.86
2022-11-05T15:28:45.997Z,19.83
2022-11-05T15:31:50.327Z,19.84
2022-11-05T15:34:55.222Z,19.82
2022-11-05T15:38:02.086Z,19.81
2022-11-05T15:41:14.592Z,19.85
2022-11-05T15:44:25.017Z,19.74
2022-11-05T15:47:36.888Z,19.85
2022-11-05T15:50:39.281Z,19.79
2022-11-05T15:54:08.409Z,19.85
2022-11-05T15:57:19.215Z,19.79
2022-11-05T16:00:22.894Z,19.84
2022-11-05T16:03:31.671Z,19.73
2022-11-05T16:06:39.660Z,19.83
2022-11-05T16:09:50.209Z,19.78
2022-11-05T16:12:52.439Z,19.82
2022-11-05T16:15:56.253Z,19.81
2022-11-05T16:18:58.549Z,19.73
2022-11-05T16:22:03.965Z,19.76
2022-11-05T16:25:29.419Z,19.81
2022-11-05T16:28:31.952Z,19.80
2022-11-05T16:31:34.382Z,19.74
2022-11-05T16:34:41.388Z,19.78
2022-11-05T16:37:49.178Z,19.66
2022-11-05T16:40:54.179Z,19.78
2022-11-05T16:43:59.308Z,19.76
2022-11-05T16:47:01.716Z,19.65
2022-11-05T16:50:20.142Z,19.73
2022-11-05T16:53:22.898Z,19.74
2022-11-05T16:56:25.307Z,19.68
2022-11-05T16:59:28.581Z,19.76
2022-11-05T17:02:31.069Z,19.66
2022-11-05T17:05:33.705Z,19.63
2022-11-05T17:08:36.406Z,19.66
2022-11-05T17:11:38.844Z,19.74
2022-11-05T17:14:41.670Z,19.68
2022-11-05T17:17:44.113Z,19.63
2022-11-05T17:20:55.034Z,19.73
2022-11-05T17:23:58.100Z,19.73
2022-11-05T17:27:00.506Z,19.67
2022-11-05T17:30:03.368Z,19.50
2022-11-05T17:33:06.186Z,19.61
2022-11-05T17:36:11.606Z,19.73
2022-11-05T17:39:14.023Z,19.59
2022-11-05T17:42:16.418Z,19.67
2022-11-05T17:45:19.114Z,19.71
2022-11-05T17:48:21.807Z,19.51
2022-11-05T17:51:24.216Z,19.71
2022-11-05T17:54:26.672Z,19.58
2022-11-05T17:57:29.194Z,19.71
2022-11-05T18:00:31.730Z,19.64
2022-11-05T18:03:34.848Z,19.67
2022-11-05T18:06:38.686Z,19.71
2022-11-05T18:09:42.027Z,19.66
2022-11-05T18:12:45.201Z,19.67
2022-11-05T18:15:50.015Z,19.52
2022-11-05T18:18:52.540Z,19.56
2022-11-05T18:21:55.941Z,19.53
2022-11-05T18:24:58.407Z,19.69
2022-11-05T18:28:01.957Z,19.65
2022-11-05T18:31:08.279Z,19.65
2022-11-05T18:34:11.537Z,19.63
2022-11-05T18:37:13.987Z,19.60
2022-11-05T18:40:16.425Z,19.68
2022-11-05T18:43:18.861Z,19.62
2022-11-05T18:46:51.060Z,19.67
2022-11-05T18:49:43.685Z,19.67
2022-11-05T18:52:46.152Z,19.60
2022-11-05T18:55:48.584Z,19.61
2022-11-05T18:59:14.762Z,19.62
2022-11-05T19:02:16.390Z,19.63
2022-11-05T19:05:34.487Z,19.66
2022-11-05T19:08:37.587Z,19.49
2022-11-05T19:11:40.536Z,19.64
2022-11-05T19:14:44.714Z,19.63
2022-11-05T19:17:47.192Z,19.64
2022-11-05T19:20:49.620Z,19.62
2022-11-05T19:23:53.427Z,19.58
2022-11-05T19:26:56.157Z,19.66
2022-11-05T19:29:58.565Z,19.58
2022-11-05T19:33:00.957Z,19.66
2022-11-05T19:36:08.122Z,19.59
2022-11-05T19:39:13.241Z,19.60
2022-11-05T19:42:15.648Z,19.56
2022-11-05T19:45:38.756Z,19.59
2022-11-05T19:48:41.265Z,19.65
2022-11-05T19:51:43.686Z,19.59
2022-11-05T19:54:46.192Z,19.57
2022-11-05T19:57:48.644Z,19.58
2022-11-05T20:00:51.064Z,19.53
2022-11-05T20:03:55.815Z,19.65
2022-11-05T20:06:58.730Z,19.63
2022-11-05T20:10:01.106Z,19.65
2022-11-05T20:13:03.639Z,19.66
2022-11-05T20:16:06.958Z,19.67
2022-11-05T20:19:12.726Z,19.63
2022-11-05T20:22:15.471Z,19.67
2022-11-05T20:25:17.967Z,19.61
2022-11-05T20:28:20.446Z,19.66
2022-11-05T20:31:23.781Z,19.58
2022-11-05T20:34:28.249Z,19.59
2022-11-05T20:37:30.731Z,19.53
2022-11-05T20:40:33.127Z,19.63
2022-11-05T20:43:36.584Z,19.57
2022-11-05T20:46:39.307Z,19.47
2022-11-05T20:49:42.031Z,19.59
2022-11-05T20:52:44.552Z,19.62
2022-11-05T20:55:48.317Z,19.62
2022-11-05T20:58:51.624Z,19.62
2022-11-05T21:01:54.139Z,19.64
2022-11-05T21:04:56.745Z,19.61
2022-11-05T21:07:59.243Z,19.60
2022-11-05T21:11:02.053Z,19.61
2022-11-05T21:14:04.429Z,19.62
2022-11-05T21:17:08.598Z,19.65
2022-11-05T21:20:11.218Z,19.55
2022-11-05T21:23:14.481Z,19.63
2022-11-05T21:26:18.041Z,19.53
2022-11-05T21:29:20.834Z,19.64
2022-11-05T21:32:23.274Z,19.56
2022-11-05T21:35:25.771Z,19.59
2022-11-05T21:38:28.191Z,19.54
2022-11-05T21:41:30.650Z,19.65
2022-11-05T21:44:33.077Z,19.54
2022-11-05T21:47:35.495Z,19.66
2022-11-05T21:51:00.335Z,19.63
2022-11-05T21:54:21.506Z,19.61
2022-11-05T21:57:42.685Z,19.67
2022-11-05T22:00:45.115Z,19.65
2022-11-05T22:03:47.549Z,19.60
2022-11-05T22:06:49.969Z,19.60
2022-11-05T22:09:53.090Z,19.65
2022-11-05T22:12:55.595Z,19.55
2022-11-05T22:15:57.978Z,19.55
2022-11-05T22:19:00.542Z,19.60
2022-11-05T22:22:05.808Z,19.63
2022-11-05T22:25:08.768Z,19.56
2022-11-05T22:28:11.406Z,19.57
2022-11-05T22:31:17.625Z,19.58
2022-11-05T22:34:20.196Z,19.63
2022-11-05T22:37:22.962Z,19.63
2022-11-05T22:40:25.556Z,19.64
2022-11-05T22:43:27.944Z,19.59
2022-11-05T22:46:31.232Z,19.61
2022-11-05T22:49:34.256Z,19.58
2022-11-05T22:52:36.527Z,19.35
2022-11-05T22:55:39.675Z,19.59
2022-11-05T22:58:42.322Z,19.62
2022-11-05T23:01:45.932Z,19.50
2022-11-05T23:04:49.506Z,19.53
2022-11-05T23:08:10.195Z,19.60
2022-11-05T23:11:35.191Z,19.58
2022-11-05T23:14:37.374Z,19.61
2022-11-05T23:17:58.380Z,19.48
2022-11-05T23:21:23.005Z,19.50
2022-11-05T23:24:25.704Z,19.53
2022-11-05T23:27:33.862Z,19.43
2022-11-05T23:30:58.252Z,19.53
2022-11-05T23:34:00.507Z,19.48
2022-11-05T23:37:21.957Z,19.52
2022-11-05T23:40:29.889Z,19.56
2022-11-05T23:43:50.744Z,19.52
2022-11-05T23:47:11.543Z,19.58
2022-11-05T23:50:13.740Z,19.52
2022-11-05T23:53:16.463Z,19.50
2022-11-05T23:56:18.650Z,19.54
2022-11-05T23:59:20.924Z,19.48
